createdAt,value
2019-03-29T00:01:13.648Z,99.90
2019-03-29T00:03:43.162Z,99.90
2019-03-29T00:06:12.435Z,99.90
2019-03-29T00:08:42.542Z,99.90
2019-03-29T00:11:12.997Z,99.90
2019-03-29T00:13:42.685Z,99.90
2019-03-29T00:16:12.044Z,99.90
2019-03-29T00:18:41.630Z,99.90
2019-03-29T00:21:11.240Z,99.90
2019-03-29T00:23:40.509Z,99.90
2019-03-29T00:26:09.784Z,99.90
2019-03-29T00:28:39.343Z,99.90
2019-03-29T00:31:08.612Z,99.90
2019-03-29T00:33:38.300Z,99.90
2019-03-29T00:36:07.961Z,99.90
2019-03-29T00:38:37.224Z,99.90
2019-03-29T00:41:06.902Z,99.90
2019-03-29T00:43:36.184Z,99.90
2019-03-29T00:46:05.484Z,99.90
2019-03-29T00:48:35.755Z,99.90
2019-03-29T00:51:05.714Z,99.90
2019-03-29T00:53:35.948Z,99.90
2019-03-29T00:56:06.061Z,99.90
2019-03-29T00:58:35.864Z,99.90
2019-03-29T01:01:05.525Z,99.90
2019-03-29T01:03:34.788Z,99.90
2019-03-29T01:06:04.381Z,99.90
2019-03-29T01:08:33.691Z,99.90
2019-03-29T01:11:03.348Z,99.90
2019-03-29T01:13:32.709Z,99.90
2019-03-29T01:16:02.345Z,99.90
2019-03-29T01:18:31.974Z,99.90
2019-03-29T01:21:01.603Z,99.90
2019-03-29T01:23:31.192Z,99.90
2019-03-29T01:26:01.174Z,99.90
2019-03-29T01:28:31.177Z,99.90
2019-03-29T01:31:00.548Z,99.90
2019-03-29T01:33:29.811Z,99.90
2019-03-29T01:35:59.688Z,99.90
2019-03-29T01:38:28.945Z,99.90
2019-03-29T01:40:58.485Z,99.90
2019-03-29T01:43:28.092Z,99.90
2019-03-29T01:45:58.708Z,99.90
2019-03-29T01:48:28.339Z,99.90
2019-03-29T01:50:57.626Z,99.90
2019-03-29T01:53:26.892Z,99.90
2019-03-29T01:55:56.447Z,99.90
2019-03-29T01:58:26.056Z,99.90
2019-03-29T02:00:55.663Z,99.90
2019-03-29T02:03:25.164Z,99.90
2019-03-29T02:05:54.726Z,99.90
2019-03-29T02:08:35.217Z,99.90
2019-03-29T02:10:55.826Z,99.90
2019-03-29T02:13:26.097Z,99.90
2019-03-29T02:15:55.923Z,99.90
2019-03-29T02:18:26.674Z,99.90
2019-03-29T02:20:55.947Z,99.90
2019-03-29T02:23:25.199Z,99.90
2019-03-29T02:25:54.474Z,99.90
2019-03-29T02:28:24.111Z,99.90
2019-03-29T02:30:53.732Z,99.90
2019-03-29T02:33:23.334Z,99.90
2019-03-29T02:35:52.936Z,99.90
2019-03-29T02:38:23.620Z,99.90
2019-03-29T02:40:53.153Z,99.90
2019-03-29T02:43:22.991Z,99.90
2019-03-29T02:45:52.582Z,99.90
2019-03-29T02:48:21.867Z,99.90
2019-03-29T02:50:51.212Z,99.90
2019-03-29T02:53:20.496Z,99.90
2019-03-29T02:55:50.003Z,99.90
2019-03-29T02:58:19.636Z,99.90
2019-03-29T03:00:48.984Z,99.90
2019-03-29T03:03:18.242Z,99.90
2019-03-29T03:05:47.546Z,99.90
2019-03-29T03:08:17.196Z,99.90
2019-03-29T03:10:46.831Z,99.90
2019-03-29T03:13:16.146Z,99.90
2019-03-29T03:15:45.563Z,99.90
2019-03-29T03:18:15.160Z,99.90
2019-03-29T03:20:44.752Z,99.90
2019-03-29T03:23:15.287Z,99.90
2019-03-29T03:25:44.574Z,99.90
2019-03-29T03:28:14.193Z,99.90
2019-03-29T03:30:43.813Z,99.90
2019-03-29T03:33:13.621Z,99.90
2019-03-29T03:35:43.222Z,99.90
2019-03-29T03:38:12.829Z,99.90
2019-03-29T03:40:42.340Z,99.90
2019-03-29T03:43:11.679Z,99.90
2019-03-29T03:45:40.952Z,99.90
2019-03-29T03:48:10.657Z,99.90
2019-03-29T03:50:42.283Z,99.90
2019-03-29T03:53:12.055Z,99.90
2019-03-29T03:55:43.287Z,99.90
2019-03-29T03:58:13.176Z,99.90
2019-03-29T04:00:57.230Z,99.90
2019-03-29T04:03:27.100Z,99.90
2019-03-29T04:05:57.960Z,99.90
2019-03-29T04:08:27.889Z,99.90
2019-03-29T04:10:57.670Z,99.90
2019-03-29T04:35:09.238Z,99.90
2019-03-29T04:37:38.800Z,99.90
2019-03-29T04:40:09.046Z,99.90
2019-03-29T04:42:38.608Z,99.90
2019-03-29T04:45:08.441Z,99.90
2019-03-29T04:47:38.096Z,99.90
2019-03-29T04:50:07.505Z,99.90
2019-03-29T04:52:36.818Z,99.90
2019-03-29T04:55:06.520Z,99.90
2019-03-29T04:57:36.327Z,99.90
2019-03-29T05:00:06.761Z,99.90
2019-03-29T05:02:36.359Z,99.90
2019-03-29T05:05:05.940Z,99.90
2019-03-29T05:07:37.008Z,99.90
2019-03-29T05:10:42.521Z,99.90
2019-03-29T05:12:37.876Z,99.90
2019-03-29T05:15:08.291Z,99.90
2019-03-29T05:17:37.556Z,99.90
2019-03-29T05:20:07.509Z,99.90
2019-03-29T05:22:37.120Z,99.90
2019-03-29T05:25:06.816Z,99.90
2019-03-29T05:27:36.331Z,99.90
2019-03-29T05:30:06.734Z,99.90
2019-03-29T05:32:36.008Z,99.90
2019-03-29T05:35:05.893Z,99.90
2019-03-29T05:37:35.483Z,99.90
2019-03-29T05:40:05.298Z,99.90
2019-03-29T05:42:34.583Z,99.90
2019-03-29T05:45:04.172Z,99.90
2019-03-29T05:47:33.719Z,99.90
2019-03-29T05:50:03.087Z,99.90
2019-03-29T05:52:32.630Z,99.90
2019-03-29T05:55:02.124Z,99.90
2019-03-29T05:57:31.398Z,99.90
2019-03-29T06:00:00.775Z,99.90
2019-03-29T06:02:30.331Z,99.90
2019-03-29T06:04:59.838Z,99.90
2019-03-29T06:07:29.114Z,99.90
2019-03-29T06:09:58.644Z,99.90
2019-03-29T06:12:28.762Z,99.90
2019-03-29T06:14:58.015Z,99.90
2019-03-29T06:17:27.344Z,99.90
2019-03-29T06:19:58.288Z,99.90
2019-03-29T06:22:28.286Z,99.90
2019-03-29T06:24:57.536Z,99.90
2019-03-29T06:27:26.838Z,99.90
2019-03-29T06:29:56.383Z,99.90
2019-03-29T06:32:26.340Z,99.90
2019-03-29T06:34:55.811Z,99.90
2019-03-29T06:37:26.153Z,99.10
2019-03-29T06:39:56.701Z,96.20
2019-03-29T06:42:26.319Z,93.70
2019-03-29T06:44:55.925Z,93.80
2019-03-29T06:47:25.542Z,91.50
2019-03-29T06:49:54.840Z,90.00
2019-03-29T06:52:24.107Z,85.00
2019-03-29T06:54:53.361Z,83.00
2019-03-29T06:57:22.669Z,76.30
2019-03-29T06:59:51.991Z,75.50
2019-03-29T07:02:21.274Z,74.40
2019-03-29T07:04:52.716Z,69.90
2019-03-29T07:07:22.024Z,71.50
2019-03-29T07:09:51.289Z,64.30
2019-03-29T07:12:20.919Z,62.70
2019-03-29T07:14:50.512Z,64.70
2019-03-29T07:17:19.790Z,58.90
2019-03-29T07:19:49.725Z,57.60
2019-03-29T07:22:20.752Z,55.50
2019-03-29T07:24:50.087Z,56.90
2019-03-29T07:27:19.827Z,59.50
2019-03-29T07:29:49.111Z,62.20
2019-03-29T07:32:18.691Z,66.70
2019-03-29T07:34:49.244Z,67.70
2019-03-29T07:37:19.127Z,73.70
2019-03-29T07:39:48.416Z,76.50
2019-03-29T07:42:17.701Z,76.80
2019-03-29T07:44:46.970Z,76.40
2019-03-29T07:47:16.506Z,78.30
2019-03-29T07:49:46.247Z,79.90
2019-03-29T07:52:15.596Z,79.50
2019-03-29T07:54:45.787Z,79.70
2019-03-29T07:57:15.080Z,80.60
2019-03-29T07:59:44.437Z,80.90
2019-03-29T08:02:13.866Z,82.20
2019-03-29T08:04:46.406Z,85.10
2019-03-29T08:07:26.650Z,83.30
2019-03-29T08:09:45.283Z,84.40
2019-03-29T08:12:14.575Z,79.40
2019-03-29T08:14:44.397Z,76.50
2019-03-29T08:17:13.680Z,77.00
2019-03-29T08:19:42.945Z,80.50
2019-03-29T08:22:12.227Z,78.40
2019-03-29T08:24:41.646Z,79.30
2019-03-29T08:27:11.807Z,76.70
2019-03-29T08:29:41.098Z,76.10
2019-03-29T08:32:10.481Z,79.30
2019-03-29T08:34:39.756Z,76.90
2019-03-29T08:37:09.325Z,72.30
2019-03-29T08:39:38.704Z,72.40
2019-03-29T08:42:07.983Z,72.40
2019-03-29T08:44:37.266Z,70.00
2019-03-29T08:47:06.823Z,69.80
2019-03-29T08:49:36.540Z,69.60
2019-03-29T08:52:05.837Z,69.30
2019-03-29T08:54:35.340Z,68.20
2019-03-29T08:57:04.717Z,66.10
2019-03-29T08:59:33.980Z,66.30
2019-03-29T09:02:03.383Z,63.50
2019-03-29T09:04:32.808Z,59.00
2019-03-29T09:07:02.459Z,58.60
2019-03-29T09:09:31.803Z,60.00
2019-03-29T09:12:13.802Z,59.40
2019-03-29T09:14:32.412Z,58.30
2019-03-29T09:17:01.834Z,60.00
2019-03-29T09:19:31.386Z,58.50
2019-03-29T09:22:01.031Z,56.60
2019-03-29T09:24:30.308Z,55.90
2019-03-29T09:27:01.073Z,56.50
2019-03-29T09:29:30.331Z,54.80
2019-03-29T09:31:59.703Z,54.30
2019-03-29T09:34:29.075Z,50.70
2019-03-29T09:37:00.111Z,52.20
2019-03-29T09:39:29.454Z,53.00
2019-03-29T09:41:58.743Z,55.20
2019-03-29T09:44:28.027Z,50.60
2019-03-29T09:46:58.643Z,50.30
2019-03-29T09:49:28.151Z,52.60
2019-03-29T09:51:57.502Z,52.50
2019-03-29T09:54:26.769Z,52.40
2019-03-29T09:56:56.040Z,54.30
2019-03-29T09:59:25.668Z,54.10
2019-03-29T10:01:54.958Z,53.60
2019-03-29T10:04:24.215Z,52.80
2019-03-29T10:06:53.874Z,51.00
2019-03-29T10:09:23.146Z,47.70
2019-03-29T10:11:52.682Z,48.30
2019-03-29T10:14:21.961Z,50.40
2019-03-29T10:16:51.268Z,52.80
2019-03-29T10:19:20.900Z,55.50
2019-03-29T10:21:50.277Z,59.20
2019-03-29T10:24:19.915Z,62.30
2019-03-29T10:26:50.088Z,63.00
2019-03-29T10:29:19.374Z,66.10
2019-03-29T10:31:48.818Z,69.90
2019-03-29T10:34:18.079Z,69.20
2019-03-29T10:36:47.364Z,70.00
2019-03-29T10:39:17.195Z,71.60
2019-03-29T10:41:46.851Z,70.70
2019-03-29T10:44:16.189Z,71.50
2019-03-29T10:46:45.759Z,72.50
2019-03-29T10:49:15.115Z,71.10
2019-03-29T10:51:44.393Z,70.10
2019-03-29T10:54:14.761Z,70.10
2019-03-29T10:56:44.136Z,69.40
2019-03-29T10:59:26.745Z,68.40
2019-03-29T11:01:44.670Z,68.90
2019-03-29T11:04:13.948Z,67.90
2019-03-29T11:06:43.561Z,68.30
2019-03-29T11:09:12.897Z,67.00
2019-03-29T11:11:43.713Z,66.50
2019-03-29T11:14:13.073Z,66.20
2019-03-29T11:16:42.696Z,63.50
2019-03-29T11:19:12.329Z,62.30
2019-03-29T11:21:41.615Z,62.30
2019-03-29T11:24:11.215Z,59.60
2019-03-29T11:26:40.498Z,55.40
2019-03-29T11:29:09.851Z,56.00
2019-03-29T11:31:39.388Z,57.60
2019-03-29T11:34:08.650Z,58.50
2019-03-29T11:36:38.303Z,59.80
2019-03-29T11:39:08.989Z,61.50
2019-03-29T11:41:38.262Z,61.60
2019-03-29T11:44:08.186Z,60.70
2019-03-29T11:46:37.490Z,61.30
2019-03-29T11:49:07.206Z,60.20
2019-03-29T11:51:36.484Z,60.20
2019-03-29T11:54:08.891Z,60.30
2019-03-29T11:56:38.337Z,60.40
2019-03-29T11:59:07.675Z,58.00
2019-03-29T12:01:37.272Z,55.00
2019-03-29T12:04:06.828Z,55.20
2019-03-29T12:06:36.174Z,56.70
2019-03-29T12:09:07.339Z,57.00
2019-03-29T12:11:37.146Z,59.00
2019-03-29T12:14:06.862Z,57.50
2019-03-29T12:16:36.474Z,54.20
2019-03-29T12:19:05.755Z,51.00
2019-03-29T12:21:35.271Z,52.60
2019-03-29T12:24:04.879Z,54.60
2019-03-29T12:26:34.691Z,55.10
2019-03-29T12:29:04.416Z,55.80
2019-03-29T12:31:38.934Z,60.30
2019-03-29T12:34:08.210Z,60.50
2019-03-29T12:36:37.495Z,57.60
2019-03-29T12:39:08.005Z,57.40
2019-03-29T12:41:37.420Z,55.60
2019-03-29T12:44:14.565Z,56.10
2019-03-29T12:46:41.512Z,57.30
2019-03-29T12:49:11.099Z,58.80
2019-03-29T12:51:41.219Z,59.50
2019-03-29T12:54:29.478Z,60.30
2019-03-29T12:56:59.072Z,58.60
2019-03-29T12:59:28.987Z,58.70
2019-03-29T13:02:07.273Z,55.10
2019-03-29T13:04:36.551Z,52.00
2019-03-29T13:07:05.907Z,50.70
2019-03-29T13:09:35.656Z,48.60
2019-03-29T13:12:05.122Z,50.00
2019-03-29T13:14:34.383Z,50.00
2019-03-29T13:17:04.136Z,48.70
2019-03-29T13:19:33.479Z,49.30
2019-03-29T13:22:02.744Z,50.60
2019-03-29T13:24:32.183Z,50.10
2019-03-29T13:27:01.532Z,48.00
2019-03-29T13:29:31.120Z,48.20
2019-03-29T13:32:00.578Z,47.00
2019-03-29T13:34:29.895Z,45.90
2019-03-29T13:36:59.189Z,45.00
2019-03-29T13:39:28.547Z,46.10
2019-03-29T13:41:57.880Z,45.20
2019-03-29T13:44:28.385Z,43.30
2019-03-29T13:46:58.094Z,44.60
2019-03-29T13:49:27.410Z,46.60
2019-03-29T13:51:57.012Z,46.10
2019-03-29T13:54:26.371Z,47.20
2019-03-29T13:56:55.835Z,46.70
2019-03-29T13:59:25.159Z,46.00
2019-03-29T14:01:54.439Z,46.40
2019-03-29T14:04:23.728Z,46.60
2019-03-29T14:06:53.027Z,46.60
2019-03-29T14:09:22.623Z,47.40
2019-03-29T14:11:51.879Z,46.60
2019-03-29T14:14:21.749Z,47.40
2019-03-29T14:16:51.835Z,46.60
2019-03-29T14:19:25.620Z,47.60
2019-03-29T14:21:53.327Z,47.50
2019-03-29T14:24:23.025Z,47.90
2019-03-29T14:26:55.109Z,49.20
2019-03-29T14:29:24.393Z,48.50
2019-03-29T14:31:54.307Z,47.70
2019-03-29T14:34:23.895Z,47.30
2019-03-29T14:36:53.488Z,48.30
2019-03-29T14:39:23.050Z,50.10
2019-03-29T14:41:52.437Z,50.80
2019-03-29T14:44:21.715Z,50.10
2019-03-29T14:46:50.995Z,50.30
2019-03-29T14:49:20.274Z,51.90
2019-03-29T14:51:49.858Z,51.00
2019-03-29T14:54:20.190Z,52.20
2019-03-29T14:56:49.913Z,51.80
2019-03-29T14:59:19.227Z,52.50
2019-03-29T15:01:48.489Z,52.40
2019-03-29T15:04:17.795Z,52.20
2019-03-29T15:06:47.063Z,53.10
2019-03-29T15:09:16.712Z,53.50
2019-03-29T15:11:46.321Z,53.20
2019-03-29T15:14:15.703Z,53.40
2019-03-29T15:16:44.962Z,53.60
2019-03-29T15:19:14.240Z,54.00
2019-03-29T15:21:43.924Z,54.10
2019-03-29T15:24:13.210Z,55.10
2019-03-29T15:26:42.714Z,56.00
2019-03-29T15:29:12.020Z,54.50
2019-03-29T15:31:41.548Z,54.00
2019-03-29T15:34:10.831Z,54.00
2019-03-29T15:36:40.103Z,55.10
2019-03-29T15:39:09.940Z,54.50
2019-03-29T15:41:39.198Z,54.50
2019-03-29T15:44:08.930Z,55.30
2019-03-29T15:46:38.195Z,55.60
2019-03-29T15:49:07.564Z,53.70
2019-03-29T15:51:36.831Z,53.70
2019-03-29T15:54:06.375Z,54.90
2019-03-29T15:56:35.652Z,56.10
2019-03-29T15:59:04.983Z,55.70
2019-03-29T16:01:34.259Z,54.80
2019-03-29T16:04:03.635Z,56.10
2019-03-29T16:06:33.185Z,56.20
2019-03-29T16:09:02.547Z,56.10
2019-03-29T16:11:32.090Z,55.90
2019-03-29T16:14:01.374Z,55.10
2019-03-29T16:16:30.723Z,55.50
2019-03-29T16:19:00.033Z,55.30
2019-03-29T16:21:29.371Z,57.10
2019-03-29T16:23:59.026Z,56.90
2019-03-29T16:26:30.164Z,57.70
2019-03-29T16:28:59.759Z,58.00
2019-03-29T16:31:29.098Z,57.60
2019-03-29T16:33:58.412Z,56.00
2019-03-29T16:36:27.972Z,56.10
2019-03-29T16:38:57.619Z,55.60
2019-03-29T16:41:27.132Z,57.00
2019-03-29T16:43:57.008Z,56.90
2019-03-29T16:46:26.795Z,57.60
2019-03-29T16:48:56.083Z,57.30
2019-03-29T16:51:25.370Z,56.90
2019-03-29T16:53:54.834Z,57.90
2019-03-29T16:56:24.528Z,57.50
2019-03-29T16:58:54.141Z,58.30
2019-03-29T17:01:23.461Z,58.80
2019-03-29T17:03:52.734Z,57.80
2019-03-29T17:06:22.348Z,58.20
2019-03-29T17:08:51.626Z,58.90
2019-03-29T17:11:20.924Z,59.10
2019-03-29T17:13:50.211Z,59.20
2019-03-29T17:16:29.652Z,59.40
2019-03-29T17:18:53.754Z,59.80
2019-03-29T17:21:23.262Z,59.80
2019-03-29T17:23:52.975Z,60.40
2019-03-29T17:26:22.906Z,61.10
2019-03-29T17:28:52.813Z,61.20
2019-03-29T17:31:29.895Z,61.10
2019-03-29T17:33:59.992Z,63.50
2019-03-29T17:36:29.931Z,64.60
2019-03-29T17:38:59.849Z,66.80
2019-03-29T17:41:29.967Z,68.60
2019-03-29T17:43:59.359Z,71.70
2019-03-29T17:46:28.876Z,72.80
2019-03-29T17:48:58.443Z,74.30
2019-03-29T17:51:27.999Z,76.30
2019-03-29T17:53:57.839Z,77.90
2019-03-29T17:56:27.536Z,79.50
2019-03-29T17:58:56.872Z,81.20
2019-03-29T18:01:26.292Z,81.80
2019-03-29T18:03:55.791Z,82.10
2019-03-29T18:06:25.377Z,82.20
2019-03-29T18:08:54.643Z,82.00
2019-03-29T18:11:23.910Z,83.50
2019-03-29T18:13:55.184Z,82.60
2019-03-29T18:16:30.926Z,82.90
2019-03-29T18:19:00.854Z,83.60
2019-03-29T18:21:30.120Z,82.80
2019-03-29T18:23:59.403Z,84.20
2019-03-29T18:26:29.018Z,83.40
2019-03-29T18:28:58.563Z,84.80
2019-03-29T18:31:28.289Z,85.30
2019-03-29T18:33:57.967Z,85.40
2019-03-29T18:36:27.499Z,85.90
2019-03-29T18:38:57.563Z,85.70
2019-03-29T18:41:38.527Z,85.90
2019-03-29T18:44:09.763Z,85.80
2019-03-29T18:46:44.810Z,86.00
2019-03-29T18:49:11.141Z,86.50
2019-03-29T18:51:41.281Z,87.00
2019-03-29T18:54:10.951Z,89.20
2019-03-29T18:56:40.975Z,88.30
2019-03-29T18:59:11.228Z,88.50
2019-03-29T19:01:41.021Z,88.10
2019-03-29T19:04:10.706Z,87.90
2019-03-29T19:06:40.509Z,90.00
2019-03-29T19:09:10.531Z,90.10
2019-03-29T19:11:40.024Z,88.90
2019-03-29T19:14:09.504Z,88.80
2019-03-29T19:16:39.142Z,88.80
2019-03-29T19:19:10.180Z,88.70
2019-03-29T19:21:41.199Z,89.10
2019-03-29T19:24:10.713Z,89.30
2019-03-29T19:26:40.652Z,89.80
2019-03-29T19:29:10.383Z,89.80
2019-03-29T19:31:40.359Z,90.00
2019-03-29T19:34:10.102Z,91.00
2019-03-29T19:40:51.413Z,91.90
2019-03-29T19:54:21.769Z,93.20
2019-03-29T19:56:28.018Z,93.40
2019-03-29T19:59:14.407Z,93.70
2019-03-29T20:02:00.755Z,93.80
2019-03-29T20:04:50.951Z,94.00
2019-03-29T20:08:08.997Z,94.20
2019-03-29T20:10:38.444Z,94.30
2019-03-29T20:13:07.943Z,94.00
2019-03-29T20:15:37.352Z,94.60
2019-03-29T20:18:06.671Z,94.10
2019-03-29T20:20:36.055Z,94.00
2019-03-29T20:23:05.766Z,93.80
2019-03-29T20:25:35.264Z,94.40
2019-03-29T20:28:04.622Z,94.90
2019-03-29T20:30:34.022Z,95.10
2019-03-29T20:33:03.317Z,95.40
2019-03-29T20:35:32.617Z,95.60
2019-03-29T20:38:01.917Z,95.60
2019-03-29T20:40:32.178Z,95.80
2019-03-29T20:43:01.833Z,95.80
2019-03-29T20:45:31.158Z,96.00
2019-03-29T20:48:00.453Z,96.00
2019-03-29T20:50:29.854Z,96.40
2019-03-29T20:52:59.138Z,96.20
2019-03-29T20:55:28.429Z,96.20
2019-03-29T20:57:57.854Z,96.10
2019-03-29T21:00:27.149Z,96.50
2019-03-29T21:02:56.458Z,96.50
2019-03-29T21:05:25.914Z,96.50
2019-03-29T21:07:55.253Z,97.00
2019-03-29T21:10:24.653Z,96.90
2019-03-29T21:12:54.115Z,97.10
2019-03-29T21:15:23.637Z,97.40
2019-03-29T21:17:56.933Z,97.50
2019-03-29T21:20:24.013Z,97.40
2019-03-29T21:22:53.280Z,97.30
2019-03-29T21:25:22.891Z,97.30
2019-03-29T21:27:52.169Z,97.60
2019-03-29T21:30:21.831Z,97.70
2019-03-29T21:32:51.190Z,97.80
2019-03-29T21:35:20.515Z,97.90
2019-03-29T21:37:49.808Z,97.90
2019-03-29T21:40:19.084Z,98.00
2019-03-29T21:42:48.474Z,98.40
2019-03-29T21:45:28.542Z,98.40
2019-03-29T21:48:01.850Z,98.60
2019-03-29T21:50:22.404Z,98.40
2019-03-29T21:52:51.734Z,98.60
2019-03-29T21:55:21.122Z,98.80
2019-03-29T21:57:50.834Z,98.90
2019-03-29T22:00:20.700Z,99.10
2019-03-29T22:02:50.404Z,99.10
2019-03-29T22:05:19.804Z,99.30
2019-03-29T22:07:49.108Z,99.20
2019-03-29T22:10:18.503Z,99.30
2019-03-29T22:12:47.811Z,99.40
2019-03-29T22:15:17.524Z,99.70
2019-03-29T22:17:47.231Z,99.70
2019-03-29T22:20:16.706Z,99.90
2019-03-29T22:22:46.140Z,99.90
2019-03-29T22:25:15.592Z,99.90
2019-03-29T22:27:44.942Z,99.90
2019-03-29T22:30:16.598Z,99.90
2019-03-29T22:32:45.890Z,99.90
2019-03-29T22:35:15.892Z,99.90
2019-03-29T22:37:45.309Z,99.90
2019-03-29T22:40:14.686Z,99.90
2019-03-29T22:42:44.092Z,99.90
2019-03-29T22:45:15.306Z,99.90
2019-03-29T22:47:45.171Z,99.90
2019-03-29T22:50:15.020Z,99.90
2019-03-29T22:52:44.907Z,99.90
2019-03-29T22:55:14.976Z,99.90
2019-03-29T22:57:44.644Z,99.90
2019-03-29T23:00:35.392Z,99.90
2019-03-29T23:03:05.309Z,99.90
2019-03-29T23:05:35.128Z,99.90
2019-03-29T23:08:04.610Z,99.90
2019-03-29T23:10:33.917Z,99.90
2019-03-29T23:13:03.617Z,99.90
2019-03-29T23:15:33.331Z,99.90
2019-03-29T23:18:02.794Z,99.90
2019-03-29T23:20:32.234Z,99.90
2019-03-29T23:23:01.534Z,99.90
2019-03-29T23:25:32.000Z,99.90
2019-03-29T23:28:01.404Z,99.90
2019-03-29T23:30:30.692Z,99.90
2019-03-29T23:32:59.952Z,99.90
2019-03-29T23:35:29.242Z,99.90
2019-03-29T23:37:58.634Z,99.90
2019-03-29T23:40:27.940Z,99.90
2019-03-29T23:42:57.214Z,99.90
2019-03-29T23:45:26.537Z,99.90
2019-03-29T23:47:55.828Z,99.90
2019-03-29T23:50:25.138Z,99.90
2019-03-29T23:52:54.499Z,99.90
2019-03-29T23:55:23.789Z,99.90
2019-03-29T23:57:53.067Z,99.90
